createdAt,value
2023-02-27T00:00:17.485Z,2.90
2023-02-27T00:00:29.493Z,2.90
2023-02-27T00:00:41.516Z,2.90
2023-02-27T00:00:53.446Z,2.90
2023-02-27T00:01:05.538Z,2.90
2023-02-27T00:01:17.948Z,2.90
2023-02-27T00:01:31.413Z,2.90
2023-02-27T00:01:43.207Z,2.90
2023-02-27T00:01:55.140Z,2.80
2023-02-27T00:02:06.953Z,2.90
2023-02-27T00:02:18.869Z,2.90
2023-02-27T00:02:32.624Z,2.80
2023-02-27T00:02:46.755Z,2.80
2023-02-27T00:02:59.025Z,2.80
2023-02-27T00:03:10.878Z,2.90
2023-02-27T00:03:23.109Z,2.80
2023-02-27T00:03:35.193Z,2.80
2023-02-27T00:03:47.053Z,2.80
2023-02-27T00:03:59.074Z,2.80
2023-02-27T00:04:11.437Z,2.70
2023-02-27T00:04:25.676Z,2.80
2023-02-27T00:04:38.002Z,2.80
2023-02-27T00:04:50.625Z,2.70
2023-02-27T00:05:02.556Z,2.70
2023-02-27T00:05:17.191Z,2.70
2023-02-27T00:05:29.147Z,2.70
2023-02-27T00:05:44.454Z,2.70
2023-02-27T00:05:56.987Z,2.70
2023-02-27T00:06:10.595Z,2.70
2023-02-27T00:06:22.439Z,2.70
2023-02-27T00:06:36.350Z,2.70
2023-02-27T00:06:49.173Z,2.70
2023-02-27T00:07:01.148Z,2.70
2023-02-27T00:07:13.063Z,2.70
2023-02-27T00:07:26.417Z,2.70
2023-02-27T00:07:38.390Z,2.70
2023-02-27T00:07:50.934Z,2.70
2023-02-27T00:08:02.906Z,2.70
2023-02-27T00:08:15.480Z,2.70
2023-02-27T00:08:27.643Z,2.70
2023-02-27T00:08:40.985Z,2.70
2023-02-27T00:08:53.181Z,2.70
2023-02-27T00:09:07.029Z,2.70
2023-02-27T00:09:18.898Z,2.70
2023-02-27T00:09:30.705Z,2.70
2023-02-27T00:09:44.368Z,2.70
2023-02-27T00:09:57.738Z,2.70
2023-02-27T00:10:14.061Z,2.70
2023-02-27T00:10:26.021Z,2.70
2023-02-27T00:10:38.359Z,2.70
2023-02-27T00:10:50.631Z,2.70
2023-02-27T00:11:04.266Z,2.70
2023-02-27T00:11:16.201Z,2.70
2023-02-27T00:11:29.579Z,2.70
2023-02-27T00:11:47.856Z,2.70
2023-02-27T00:12:02.175Z,2.70
2023-02-27T00:12:15.713Z,2.70
2023-02-27T00:12:27.818Z,2.70
2023-02-27T00:12:41.066Z,2.70
2023-02-27T00:12:53.974Z,2.70
2023-02-27T00:13:05.948Z,2.70
2023-02-27T00:13:18.305Z,2.70
2023-02-27T00:13:31.625Z,2.70
2023-02-27T00:13:43.741Z,2.70
2023-02-27T00:13:57.057Z,2.70
2023-02-27T00:14:10.636Z,2.70
2023-02-27T00:14:23.554Z,2.70
2023-02-27T00:14:35.746Z,2.70
2023-02-27T00:14:47.968Z,2.60
2023-02-27T00:15:01.361Z,2.70
2023-02-27T00:15:16.188Z,2.70
2023-02-27T00:15:31.101Z,2.70
2023-02-27T00:15:47.314Z,2.70
2023-02-27T00:15:59.169Z,2.70
2023-02-27T00:16:13.445Z,2.70
2023-02-27T00:16:25.511Z,2.70
2023-02-27T00:16:39.010Z,2.60
2023-02-27T00:16:50.896Z,2.60
2023-02-27T00:17:02.752Z,2.70
2023-02-27T00:17:19.328Z,2.70
2023-02-27T00:17:31.868Z,2.70
2023-02-27T00:17:46.038Z,2.60
2023-02-27T00:17:58.926Z,2.70
2023-02-27T00:18:18.698Z,2.70
2023-02-27T00:18:31.359Z,2.70
2023-02-27T00:18:43.126Z,2.70
2023-02-27T00:18:59.518Z,2.70
2023-02-27T00:19:12.444Z,2.70
2023-02-27T00:19:24.280Z,2.70
2023-02-27T00:19:36.124Z,2.70
2023-02-27T00:19:47.973Z,2.70
2023-02-27T00:20:00.021Z,2.70
2023-02-27T00:20:14.429Z,2.70
2023-02-27T00:20:29.657Z,2.70
2023-02-27T00:20:41.757Z,2.80
2023-02-27T00:20:56.216Z,2.80
2023-02-27T00:21:09.583Z,2.80
2023-02-27T00:21:21.775Z,2.80
2023-02-27T00:21:36.442Z,2.80
2023-02-27T00:21:48.853Z,2.80
2023-02-27T00:22:00.675Z,2.80
2023-02-27T00:22:14.724Z,2.80
2023-02-27T00:22:28.098Z,2.80
2023-02-27T00:22:42.119Z,2.80
2023-02-27T00:22:54.073Z,2.80
2023-02-27T00:23:06.320Z,2.80
2023-02-27T00:23:18.172Z,2.80
2023-02-27T00:23:30.276Z,2.70
2023-02-27T00:23:42.128Z,2.80
2023-02-27T00:23:53.989Z,2.70
2023-02-27T00:24:06.650Z,2.70
2023-02-27T00:24:20.090Z,2.70
2023-02-27T00:24:31.906Z,2.70
2023-02-27T00:24:43.828Z,2.70
2023-02-27T00:24:55.733Z,2.70
2023-02-27T00:25:08.449Z,2.70
2023-02-27T00:25:20.450Z,2.70
2023-02-27T00:25:33.590Z,2.70
2023-02-27T00:25:45.487Z,2.70
2023-02-27T00:25:57.476Z,2.70
2023-02-27T00:26:09.372Z,2.70
2023-02-27T00:26:21.297Z,2.70
2023-02-27T00:26:34.464Z,2.70
2023-02-27T00:26:46.362Z,2.70
2023-02-27T00:26:58.117Z,2.70
2023-02-27T00:27:09.889Z,2.70
2023-02-27T00:27:21.686Z,2.70
2023-02-27T00:27:34.589Z,2.70
2023-02-27T00:27:46.618Z,2.70
2023-02-27T00:27:58.519Z,2.70
2023-02-27T00:28:10.480Z,2.70
2023-02-27T00:28:22.881Z,2.70
2023-02-27T00:28:34.809Z,2.70
2023-02-27T00:28:46.725Z,2.70
2023-02-27T00:28:58.651Z,2.70
2023-02-27T00:29:10.425Z,2.70
2023-02-27T00:29:22.469Z,2.70
2023-02-27T00:29:34.262Z,2.70
2023-02-27T00:29:46.117Z,2.70
2023-02-27T00:29:58.547Z,2.70
2023-02-27T00:30:13.441Z,2.70
2023-02-27T00:30:26.544Z,2.80
2023-02-27T00:30:38.712Z,2.70
2023-02-27T00:30:50.537Z,2.70
2023-02-27T00:31:04.725Z,2.70
2023-02-27T00:31:16.648Z,2.70
2023-02-27T00:31:28.997Z,2.70
2023-02-27T00:31:41.128Z,2.70
2023-02-27T00:31:53.432Z,2.70
2023-02-27T00:32:05.403Z,2.80
2023-02-27T00:32:17.359Z,2.70
2023-02-27T00:32:29.506Z,2.80
2023-02-27T00:32:41.711Z,2.80
2023-02-27T00:32:56.329Z,2.80
2023-02-27T00:33:08.996Z,2.80
2023-02-27T00:33:20.997Z,2.80
2023-02-27T00:33:33.014Z,2.80
2023-02-27T00:33:44.809Z,2.80
2023-02-27T00:33:56.849Z,2.80
2023-02-27T00:34:08.976Z,2.80
2023-02-27T00:34:20.844Z,2.80
2023-02-27T00:34:32.747Z,2.80
2023-02-27T00:34:44.634Z,2.80
2023-02-27T00:34:56.607Z,2.80
2023-02-27T00:35:10.828Z,2.80
2023-02-27T00:35:23.801Z,2.80
2023-02-27T00:35:35.584Z,2.80
2023-02-27T00:35:58.733Z,2.80
2023-02-27T00:36:10.618Z,2.80
2023-02-27T00:36:22.512Z,2.70
2023-02-27T00:36:34.264Z,2.80
2023-02-27T00:36:46.065Z,2.80
2023-02-27T00:36:57.857Z,2.80
2023-02-27T00:37:09.724Z,2.70
2023-02-27T00:37:21.525Z,2.70
2023-02-27T00:37:34.549Z,2.70
2023-02-27T00:37:46.437Z,2.70
2023-02-27T00:37:58.281Z,2.70
2023-02-27T00:38:10.860Z,2.70
2023-02-27T00:38:22.665Z,2.70
2023-02-27T00:38:35.116Z,2.70
2023-02-27T00:38:46.972Z,2.70
2023-02-27T00:38:58.837Z,2.70
2023-02-27T00:39:10.758Z,2.70
2023-02-27T00:39:22.756Z,2.70
2023-02-27T00:39:34.731Z,2.70
2023-02-27T00:39:46.550Z,2.70
2023-02-27T00:39:58.503Z,2.70
2023-02-27T00:40:11.780Z,2.70
2023-02-27T00:40:25.586Z,2.70
2023-02-27T00:40:37.621Z,2.70
2023-02-27T00:40:49.498Z,2.70
2023-02-27T00:41:01.414Z,2.70
2023-02-27T00:41:13.271Z,2.70
2023-02-27T00:41:25.566Z,2.70
2023-02-27T00:41:37.608Z,2.70
2023-02-27T00:41:49.412Z,2.70
2023-02-27T00:42:01.262Z,2.70
2023-02-27T00:42:13.182Z,2.70
2023-02-27T00:42:25.054Z,2.70
2023-02-27T00:42:36.907Z,2.70
2023-02-27T00:42:49.506Z,2.70
2023-02-27T00:43:02.149Z,2.70
2023-02-27T00:43:13.961Z,2.70
2023-02-27T00:43:26.329Z,2.70
2023-02-27T00:43:38.214Z,2.70
2023-02-27T00:43:49.998Z,2.70
2023-02-27T00:44:01.766Z,2.70
2023-02-27T00:44:13.549Z,2.70
2023-02-27T00:44:25.364Z,2.70
2023-02-27T00:44:38.532Z,2.70
2023-02-27T00:44:50.315Z,2.70
2023-02-27T00:45:02.751Z,2.70
2023-02-27T00:45:14.645Z,2.70
2023-02-27T00:45:26.546Z,2.70
2023-02-27T00:45:38.325Z,2.70
2023-02-27T00:45:50.163Z,2.70
2023-02-27T00:46:02.016Z,2.70
2023-02-27T00:46:13.865Z,2.70
2023-02-27T00:46:25.792Z,2.70
2023-02-27T00:46:37.704Z,2.70
2023-02-27T00:46:49.791Z,2.70
2023-02-27T00:47:01.676Z,2.70
2023-02-27T00:47:13.552Z,2.70
2023-02-27T00:47:25.446Z,2.70
2023-02-27T00:47:37.607Z,2.70
2023-02-27T00:47:49.524Z,2.70
2023-02-27T00:48:01.301Z,2.60
2023-02-27T00:48:13.110Z,2.70
2023-02-27T00:48:25.078Z,2.70
2023-02-27T00:48:37.055Z,2.60
2023-02-27T00:48:48.886Z,2.60
2023-02-27T00:49:00.831Z,2.60
2023-02-27T00:49:12.785Z,2.60
2023-02-27T00:49:25.717Z,2.60
2023-02-27T00:49:37.507Z,2.60
2023-02-27T00:49:49.332Z,2.60
2023-02-27T00:50:01.223Z,2.60
2023-02-27T00:50:14.432Z,2.60
2023-02-27T00:50:26.306Z,2.60
2023-02-27T00:50:38.418Z,2.60
2023-02-27T00:50:50.609Z,2.60
2023-02-27T00:51:02.571Z,2.60
2023-02-27T00:51:14.586Z,2.60
2023-02-27T00:51:27.410Z,2.60
2023-02-27T00:51:39.827Z,2.60
2023-02-27T00:51:52.377Z,2.60
2023-02-27T00:52:04.690Z,2.70
2023-02-27T00:52:16.778Z,2.60
2023-02-27T00:52:28.692Z,2.70
2023-02-27T00:52:40.609Z,2.70
2023-02-27T00:52:52.616Z,2.60
2023-02-27T00:53:04.629Z,2.70
2023-02-27T00:53:16.634Z,2.70
2023-02-27T00:53:28.569Z,2.60
2023-02-27T00:53:41.081Z,2.70
2023-02-27T00:53:52.907Z,2.70
2023-02-27T00:54:04.792Z,2.70
2023-02-27T00:54:16.640Z,2.60
2023-02-27T00:54:28.657Z,2.70
2023-02-27T00:54:40.470Z,2.60
2023-02-27T00:54:52.448Z,2.60
2023-02-27T00:55:04.986Z,2.70
2023-02-27T00:55:16.995Z,2.70
2023-02-27T00:55:28.918Z,2.70
2023-02-27T00:55:40.701Z,2.70
2023-02-27T00:55:52.512Z,2.60
2023-02-27T00:56:04.729Z,2.70
2023-02-27T00:56:16.606Z,2.70
2023-02-27T00:56:28.624Z,2.70
2023-02-27T00:56:41.087Z,2.70
2023-02-27T00:56:53.081Z,2.60
2023-02-27T00:57:04.922Z,2.70
2023-02-27T00:57:16.881Z,2.70
2023-02-27T00:57:28.779Z,2.70
2023-02-27T00:57:40.830Z,2.70
2023-02-27T00:57:52.779Z,2.70
2023-02-27T00:58:04.742Z,2.70
2023-02-27T00:58:16.755Z,2.70
2023-02-27T00:58:28.722Z,2.70
2023-02-27T00:58:40.546Z,2.70
2023-02-27T00:58:52.322Z,2.70
2023-02-27T00:59:04.284Z,2.70
2023-02-27T00:59:16.165Z,2.70
2023-02-27T00:59:27.983Z,2.70
2023-02-27T00:59:39.988Z,2.70
2023-02-27T00:59:51.893Z,2.60
2023-02-27T01:00:06.380Z,2.60
2023-02-27T01:00:18.653Z,2.60
2023-02-27T01:00:30.608Z,2.60
2023-02-27T01:00:42.609Z,2.60
2023-02-27T01:00:54.407Z,2.60
2023-02-27T01:01:06.461Z,2.60
2023-02-27T01:01:18.336Z,2.60
2023-02-27T01:01:30.307Z,2.60
2023-02-27T01:01:42.144Z,2.60
2023-02-27T01:01:53.944Z,2.60
2023-02-27T01:02:05.714Z,2.60
2023-02-27T01:02:17.644Z,2.60
2023-02-27T01:02:29.537Z,2.60
2023-02-27T01:02:41.481Z,2.60
2023-02-27T01:02:53.427Z,2.60
2023-02-27T01:03:05.308Z,2.60
2023-02-27T01:03:17.079Z,2.60
2023-02-27T01:03:28.984Z,2.60
2023-02-27T01:03:41.106Z,2.60
2023-02-27T01:03:52.968Z,2.60
2023-02-27T01:04:04.824Z,2.60
2023-02-27T01:04:16.649Z,2.60
2023-02-27T01:04:28.488Z,2.60
2023-02-27T01:04:40.397Z,2.60
2023-02-27T01:04:52.305Z,2.60
2023-02-27T01:05:04.494Z,2.60
2023-02-27T01:05:16.409Z,2.60
2023-02-27T01:05:28.314Z,2.60
2023-02-27T01:05:40.272Z,2.60
2023-02-27T01:05:52.209Z,2.60
2023-02-27T01:06:04.331Z,2.50
2023-02-27T01:06:16.203Z,2.60
2023-02-27T01:06:28.029Z,2.50
2023-02-27T01:06:39.956Z,2.50
2023-02-27T01:06:51.742Z,2.60
2023-02-27T01:07:04.143Z,2.50
2023-02-27T01:07:16.138Z,2.60
2023-02-27T01:07:28.006Z,2.50
2023-02-27T01:07:39.929Z,2.50
2023-02-27T01:07:51.821Z,2.50
2023-02-27T01:08:03.917Z,2.50
2023-02-27T01:08:15.797Z,2.50
2023-02-27T01:08:27.824Z,2.50
2023-02-27T01:08:39.786Z,2.50
2023-02-27T01:08:51.634Z,2.50
2023-02-27T01:09:04.118Z,2.50
2023-02-27T01:09:16.138Z,2.50
2023-02-27T01:09:27.925Z,2.50
2023-02-27T01:09:39.985Z,2.50
2023-02-27T01:09:51.788Z,2.50
2023-02-27T01:10:05.797Z,2.50
2023-02-27T01:10:18.084Z,2.50
2023-02-27T01:10:29.910Z,2.50
2023-02-27T01:10:41.813Z,2.40
2023-02-27T01:10:55.934Z,2.50
2023-02-27T01:11:07.704Z,2.50
2023-02-27T01:11:19.612Z,2.50
2023-02-27T01:11:31.555Z,2.50
2023-02-27T01:11:43.520Z,2.50
2023-02-27T01:11:55.531Z,2.50
2023-02-27T01:12:07.484Z,2.50
2023-02-27T01:12:19.373Z,2.50
2023-02-27T01:12:31.137Z,2.50
2023-02-27T01:12:43.024Z,2.50
2023-02-27T01:12:54.960Z,2.50
2023-02-27T01:13:06.826Z,2.50
2023-02-27T01:13:18.772Z,2.50
2023-02-27T01:13:30.731Z,2.50
2023-02-27T01:13:44.283Z,2.50
2023-02-27T01:13:56.112Z,2.50
2023-02-27T01:14:07.982Z,2.50
2023-02-27T01:14:19.823Z,2.50
2023-02-27T01:14:31.790Z,2.50
2023-02-27T01:14:44.524Z,2.50
2023-02-27T01:14:56.340Z,2.50
2023-02-27T01:15:09.913Z,2.50
2023-02-27T01:15:21.808Z,2.50
2023-02-27T01:15:33.626Z,2.50
2023-02-27T01:15:45.534Z,2.50
2023-02-27T01:15:57.431Z,2.50
2023-02-27T01:16:10.560Z,2.50
2023-02-27T01:16:22.935Z,2.50
2023-02-27T01:16:34.900Z,2.50
2023-02-27T01:16:46.657Z,2.50
2023-02-27T01:16:58.571Z,2.50
2023-02-27T01:17:10.741Z,2.50
2023-02-27T01:17:22.532Z,2.50
2023-02-27T01:17:34.420Z,2.50
2023-02-27T01:17:48.016Z,2.60
2023-02-27T01:18:00.018Z,2.60
2023-02-27T01:18:11.831Z,2.60
2023-02-27T01:18:23.632Z,2.50
2023-02-27T01:18:35.500Z,2.60
2023-02-27T01:18:47.413Z,2.60
2023-02-27T01:18:59.286Z,2.50
2023-02-27T01:19:11.127Z,2.50
2023-02-27T01:19:22.982Z,2.50
2023-02-27T01:19:34.813Z,2.50
2023-02-27T01:19:46.877Z,2.50
2023-02-27T01:19:58.842Z,2.50
2023-02-27T01:20:12.047Z,2.50
2023-02-27T01:20:23.835Z,2.50
2023-02-27T01:20:35.736Z,2.50
2023-02-27T01:20:52.207Z,2.50
2023-02-27T01:21:04.625Z,2.50
2023-02-27T01:21:16.694Z,2.50
2023-02-27T01:21:28.761Z,2.50
2023-02-27T01:21:42.126Z,2.50
2023-02-27T01:21:54.132Z,2.50
2023-02-27T01:22:06.213Z,2.50
2023-02-27T01:22:18.095Z,2.60
2023-02-27T01:22:29.938Z,2.60
2023-02-27T01:22:41.826Z,2.60
2023-02-27T01:22:53.622Z,2.60
2023-02-27T01:23:05.716Z,2.60
2023-02-27T01:23:17.537Z,2.60
2023-02-27T01:23:29.328Z,2.50
2023-02-27T01:23:41.110Z,2.60
2023-02-27T01:23:53.120Z,2.60
2023-02-27T01:24:05.420Z,2.60
2023-02-27T01:24:18.359Z,2.60
2023-02-27T01:24:30.199Z,2.60
2023-02-27T01:24:42.152Z,2.60
2023-02-27T01:24:54.194Z,2.60
2023-02-27T01:25:07.429Z,2.60
2023-02-27T01:25:19.306Z,2.60
2023-02-27T01:25:31.109Z,2.70
2023-02-27T01:25:43.003Z,2.70
2023-02-27T01:25:55.298Z,2.70
2023-02-27T01:26:07.149Z,2.70
2023-02-27T01:26:19.093Z,2.60
2023-02-27T01:26:30.974Z,2.60
2023-02-27T01:26:42.821Z,2.70
2023-02-27T01:26:54.691Z,2.70
2023-02-27T01:27:06.563Z,2.70
2023-02-27T01:27:18.641Z,2.70
2023-02-27T01:27:30.802Z,2.60
2023-02-27T01:27:42.752Z,2.70
2023-02-27T01:27:54.653Z,2.60
2023-02-27T01:28:06.442Z,2.70
2023-02-27T01:28:18.325Z,2.60
2023-02-27T01:28:30.212Z,2.60
2023-02-27T01:28:42.249Z,2.60
2023-02-27T01:28:54.140Z,2.60
2023-02-27T01:29:06.583Z,2.60
2023-02-27T01:29:18.511Z,2.60
2023-02-27T01:29:30.381Z,2.60
2023-02-27T01:29:42.651Z,2.60
2023-02-27T01:29:54.494Z,2.60
2023-02-27T01:30:07.119Z,2.60
2023-02-27T01:30:19.067Z,2.60
2023-02-27T01:30:30.924Z,2.60
2023-02-27T01:30:42.859Z,2.60
2023-02-27T01:30:54.675Z,2.60
2023-02-27T01:31:06.490Z,2.60
2023-02-27T01:31:18.367Z,2.60
2023-02-27T01:31:30.408Z,2.60
2023-02-27T01:31:42.593Z,2.60
2023-02-27T01:31:54.607Z,2.60
2023-02-27T01:32:06.990Z,2.60
2023-02-27T01:32:19.003Z,2.60
2023-02-27T01:32:30.989Z,2.60
2023-02-27T01:32:42.997Z,2.60
2023-02-27T01:32:54.808Z,2.60
2023-02-27T01:33:06.981Z,2.60
2023-02-27T01:33:18.879Z,2.60
2023-02-27T01:33:30.661Z,2.60
2023-02-27T01:33:42.475Z,2.60
2023-02-27T01:33:54.356Z,2.60
2023-02-27T01:34:06.183Z,2.50
2023-02-27T01:34:18.513Z,2.50
2023-02-27T01:34:31.706Z,2.50
2023-02-27T01:34:44.618Z,2.50
2023-02-27T01:34:56.630Z,2.50
2023-02-27T01:35:08.711Z,2.50
2023-02-27T01:35:20.565Z,2.50
2023-02-27T01:35:32.593Z,2.50
2023-02-27T01:35:44.590Z,2.50
2023-02-27T01:35:56.542Z,2.50
2023-02-27T01:36:09.165Z,2.50
2023-02-27T01:36:20.949Z,2.50
2023-02-27T01:36:32.737Z,2.50
2023-02-27T01:36:44.565Z,2.50
2023-02-27T01:36:56.458Z,2.50
2023-02-27T01:37:08.561Z,2.50
2023-02-27T01:37:20.361Z,2.50
2023-02-27T01:37:32.154Z,2.50
2023-02-27T01:37:44.636Z,2.50
2023-02-27T01:37:56.508Z,2.50
2023-02-27T01:38:08.362Z,2.50
2023-02-27T01:38:20.248Z,2.50
2023-02-27T01:38:32.105Z,2.50
2023-02-27T01:38:44.100Z,2.50
2023-02-27T01:38:55.919Z,2.50
2023-02-27T01:39:07.867Z,2.50
2023-02-27T01:39:20.553Z,2.50
2023-02-27T01:39:33.148Z,2.50
2023-02-27T01:39:45.042Z,2.50
2023-02-27T01:39:56.846Z,2.40
2023-02-27T01:40:09.779Z,2.50
2023-02-27T01:40:21.750Z,2.40
2023-02-27T01:40:40.641Z,2.40
2023-02-27T01:40:52.531Z,2.40
2023-02-27T01:41:07.199Z,2.40
2023-02-27T01:41:19.053Z,2.40
2023-02-27T01:41:31.656Z,2.50
2023-02-27T01:41:43.567Z,2.40
2023-02-27T01:41:55.460Z,2.40
2023-02-27T01:42:18.941Z,2.40
2023-02-27T01:42:30.798Z,2.40
2023-02-27T01:42:42.855Z,2.40
2023-02-27T01:42:54.735Z,2.40
2023-02-27T01:43:07.534Z,2.40
2023-02-27T01:43:21.595Z,2.40
2023-02-27T01:43:33.834Z,2.40
2023-02-27T01:44:02.419Z,2.40
2023-02-27T01:44:14.689Z,2.40
2023-02-27T01:44:28.994Z,2.40
2023-02-27T01:45:12.604Z,2.30
2023-02-27T01:45:26.531Z,2.40
2023-02-27T01:45:41.870Z,2.40
2023-02-27T01:45:53.866Z,2.40
2023-02-27T01:46:05.906Z,2.30
2023-02-27T01:46:17.767Z,2.40
2023-02-27T01:46:30.335Z,2.40
2023-02-27T01:46:42.345Z,2.40
2023-02-27T01:46:54.185Z,2.40
2023-02-27T01:47:05.986Z,2.40
2023-02-27T01:47:18.203Z,2.40
2023-02-27T01:47:30.021Z,2.40
2023-02-27T01:47:45.652Z,2.40
2023-02-27T01:48:05.607Z,2.40
2023-02-27T01:48:33.549Z,2.30
2023-02-27T01:48:45.407Z,2.40
2023-02-27T01:49:06.794Z,2.40
2023-02-27T01:49:31.313Z,2.40
2023-02-27T01:49:43.109Z,2.40
2023-02-27T01:49:55.868Z,2.40
2023-02-27T01:50:08.769Z,2.40
2023-02-27T01:50:20.743Z,2.30
2023-02-27T01:50:32.913Z,2.40
2023-02-27T01:50:58.840Z,2.40
2023-02-27T01:51:14.467Z,2.40
2023-02-27T01:51:30.186Z,2.30
2023-02-27T01:51:51.315Z,2.30
2023-02-27T01:52:08.122Z,2.30
2023-02-27T01:52:19.967Z,2.30
2023-02-27T01:52:31.826Z,2.30
2023-02-27T01:52:44.330Z,2.30
2023-02-27T01:52:58.908Z,2.30
2023-02-27T01:53:11.460Z,2.30
2023-02-27T01:53:26.003Z,2.40
2023-02-27T01:53:39.196Z,2.30
2023-02-27T01:53:52.010Z,2.30
2023-02-27T01:54:07.089Z,2.30
2023-02-27T01:54:21.577Z,2.30
2023-02-27T01:54:36.804Z,2.30
2023-02-27T01:54:48.612Z,2.30
2023-02-27T01:55:00.471Z,2.40
2023-02-27T01:55:13.238Z,2.30
2023-02-27T01:55:26.077Z,2.30
2023-02-27T01:55:39.079Z,2.30
2023-02-27T01:55:50.847Z,2.30
2023-02-27T01:56:15.874Z,2.30
2023-02-27T01:56:29.623Z,2.40
2023-02-27T01:56:41.557Z,2.40
2023-02-27T01:56:53.480Z,2.30
2023-02-27T01:57:06.833Z,2.30
2023-02-27T01:57:18.995Z,2.40
2023-02-27T01:57:30.804Z,2.40
2023-02-27T01:57:42.777Z,2.30
2023-02-27T01:57:54.676Z,2.30
2023-02-27T01:58:11.205Z,2.30
2023-02-27T01:58:23.045Z,2.30
2023-02-27T01:58:34.902Z,2.40
2023-02-27T01:58:47.735Z,2.30
2023-02-27T01:59:03.574Z,2.40
2023-02-27T01:59:15.621Z,2.30
2023-02-27T01:59:27.437Z,2.40
2023-02-27T01:59:40.659Z,2.40
2023-02-27T01:59:52.433Z,2.40
2023-02-27T02:00:06.046Z,2.40
2023-02-27T02:00:18.381Z,2.40
2023-02-27T02:00:30.222Z,2.40
2023-02-27T02:00:42.247Z,2.40
2023-02-27T02:00:54.202Z,2.40
2023-02-27T02:01:06.193Z,2.40
2023-02-27T02:01:18.458Z,2.40
2023-02-27T02:01:32.199Z,2.40
2023-02-27T02:01:44.169Z,2.40
2023-02-27T02:01:56.415Z,2.40
2023-02-27T02:02:17.425Z,2.40
2023-02-27T02:02:34.840Z,2.40
2023-02-27T02:02:57.540Z,2.40
2023-02-27T02:03:33.225Z,2.40
2023-02-27T02:04:28.324Z,2.40
2023-02-27T02:04:40.321Z,2.30
2023-02-27T02:04:52.236Z,2.30
2023-02-27T02:05:05.053Z,2.30
2023-02-27T02:05:16.921Z,2.30
2023-02-27T02:05:28.938Z,2.30
2023-02-27T02:05:40.796Z,2.30
2023-02-27T02:05:54.439Z,2.30
2023-02-27T02:06:07.179Z,2.30
2023-02-27T02:06:18.992Z,2.40
2023-02-27T02:06:31.487Z,2.40
2023-02-27T02:06:47.838Z,2.40
2023-02-27T02:07:07.410Z,2.40
2023-02-27T02:07:19.840Z,2.40
2023-02-27T02:07:31.600Z,2.40
2023-02-27T02:07:43.762Z,2.40
2023-02-27T02:07:55.593Z,2.40
2023-02-27T02:08:07.517Z,2.40
2023-02-27T02:08:20.294Z,2.40
2023-02-27T02:08:35.879Z,2.40
2023-02-27T02:08:49.272Z,2.40
2023-02-27T02:09:01.106Z,2.40
2023-02-27T02:09:12.993Z,2.40
2023-02-27T02:09:24.869Z,2.40
2023-02-27T02:09:40.814Z,2.40
2023-02-27T02:09:55.196Z,2.40
2023-02-27T02:10:07.948Z,2.40
2023-02-27T02:10:20.190Z,2.40
2023-02-27T02:10:32.456Z,2.40
2023-02-27T02:10:44.423Z,2.40
2023-02-27T02:10:56.356Z,2.40
2023-02-27T02:11:09.237Z,2.40
2023-02-27T02:11:21.143Z,2.40
2023-02-27T02:11:33.011Z,2.40
2023-02-27T02:11:45.032Z,2.40
2023-02-27T02:11:57.695Z,2.40
2023-02-27T02:12:10.447Z,2.40
2023-02-27T02:12:27.230Z,2.40
2023-02-27T02:12:39.241Z,2.40
2023-02-27T02:12:51.171Z,2.40
2023-02-27T02:13:02.962Z,2.40
2023-02-27T02:13:15.077Z,2.40
2023-02-27T02:13:27.216Z,2.40
2023-02-27T02:13:40.228Z,2.40
2023-02-27T02:13:58.331Z,2.40
2023-02-27T02:14:10.976Z,2.40
2023-02-27T02:14:23.017Z,2.40
2023-02-27T02:14:34.855Z,2.40
2023-02-27T02:14:46.663Z,2.40
2023-02-27T02:14:58.469Z,2.40
2023-02-27T02:15:10.748Z,2.40
2023-02-27T02:15:25.508Z,2.30
2023-02-27T02:15:39.427Z,2.30
2023-02-27T02:16:21.980Z,2.30
2023-02-27T02:16:50.677Z,2.30
2023-02-27T02:17:50.889Z,2.30
2023-02-27T02:18:52.782Z,2.30
2023-02-27T02:19:26.272Z,2.30
2023-02-27T02:20:22.005Z,2.30
2023-02-27T02:21:14.574Z,2.30
2023-02-27T02:22:23.385Z,2.30
2023-02-27T02:23:18.507Z,2.30
2023-02-27T02:24:02.595Z,2.30
2023-02-27T02:25:02.364Z,2.30
2023-02-27T02:25:38.548Z,2.20
2023-02-27T02:26:07.791Z,2.20
2023-02-27T02:26:40.064Z,2.20
2023-02-27T02:27:08.187Z,2.20
2023-02-27T02:27:26.622Z,2.20
2023-02-27T02:28:15.507Z,2.10
2023-02-27T02:29:06.214Z,2.10
2023-02-27T02:29:29.962Z,2.20
2023-02-27T02:30:24.614Z,2.20
2023-02-27T02:30:48.342Z,2.20
2023-02-27T02:31:27.951Z,2.20
2023-02-27T02:32:24.357Z,2.20
2023-02-27T02:32:47.801Z,2.20
2023-02-27T02:33:27.429Z,2.20
2023-02-27T02:33:51.376Z,2.20
2023-02-27T02:34:29.220Z,2.20
2023-02-27T02:35:10.646Z,2.20
2023-02-27T02:35:55.174Z,2.10
2023-02-27T02:36:43.278Z,2.10
2023-02-27T02:37:00.142Z,2.10
2023-02-27T02:37:54.807Z,2.10
2023-02-27T02:38:06.773Z,2.10
2023-02-27T02:38:57.575Z,2.20
2023-02-27T02:39:36.992Z,2.20
2023-02-27T02:40:21.621Z,2.20
2023-02-27T02:41:00.258Z,2.20
2023-02-27T02:43:21.530Z,2.10
2023-02-27T02:43:55.867Z,2.10
2023-02-27T02:44:32.802Z,2.10
2023-02-27T02:45:17.168Z,2.10
2023-02-27T02:45:36.743Z,2.20
2023-02-27T02:46:30.247Z,2.10
2023-02-27T02:46:56.931Z,2.20
2023-02-27T02:47:24.199Z,2.20
2023-02-27T02:47:56.541Z,2.20
2023-02-27T02:48:33.989Z,2.20
2023-02-27T02:49:14.756Z,2.20
2023-02-27T02:49:33.472Z,2.20
2023-02-27T02:50:04.908Z,2.20
2023-02-27T02:50:52.380Z,2.20
2023-02-27T02:51:35.650Z,2.20
2023-02-27T02:52:09.130Z,2.10
2023-02-27T02:53:05.425Z,2.10
2023-02-27T02:54:12.590Z,2.10
2023-02-27T02:55:06.434Z,2.10
2023-02-27T02:55:56.685Z,2.00
2023-02-27T02:56:26.157Z,2.00
2023-02-27T02:57:11.239Z,1.90
2023-02-27T02:57:32.408Z,2.00
2023-02-27T02:57:58.541Z,2.00
2023-02-27T02:58:29.945Z,2.00
2023-02-27T02:59:14.980Z,2.00
2023-02-27T03:00:16.815Z,2.00
2023-02-27T03:00:33.256Z,2.00
2023-02-27T03:01:43.585Z,2.00
2023-02-27T03:02:06.096Z,2.00
2023-02-27T03:03:03.317Z,2.00
2023-02-27T03:03:30.774Z,2.00
2023-02-27T03:03:56.805Z,2.00
2023-02-27T03:04:16.799Z,2.00
2023-02-27T03:04:46.552Z,2.00
2023-02-27T03:05:02.593Z,2.00
2023-02-27T03:12:46.226Z,1.90
2023-02-27T03:13:02.966Z,1.90
2023-02-27T03:13:24.633Z,2.00
2023-02-27T03:13:55.002Z,2.00
2023-02-27T03:14:20.866Z,2.00
2023-02-27T03:14:50.328Z,2.00
2023-02-27T03:15:37.605Z,2.00
2023-02-27T03:16:09.557Z,1.90
2023-02-27T03:16:30.806Z,2.00
2023-02-27T03:16:45.404Z,2.00
2023-02-27T03:17:00.629Z,2.00
2023-02-27T03:17:23.861Z,2.00
2023-02-27T03:18:10.493Z,2.00
2023-02-27T03:18:32.851Z,1.90
2023-02-27T03:18:51.029Z,1.90
2023-02-27T03:19:15.837Z,1.90
2023-02-27T03:19:41.074Z,1.90
2023-02-27T03:20:03.800Z,1.90
2023-02-27T03:20:23.089Z,1.90
2023-02-27T03:20:41.237Z,1.90
2023-02-27T03:20:57.616Z,1.80
2023-02-27T03:21:14.630Z,1.80
2023-02-27T03:21:39.007Z,1.80
2023-02-27T03:22:09.726Z,1.80
2023-02-27T03:22:30.953Z,1.70
2023-02-27T03:22:45.642Z,1.70
2023-02-27T03:23:00.078Z,1.80
2023-02-27T03:23:16.716Z,1.80
2023-02-27T03:23:33.938Z,1.70
2023-02-27T03:23:47.178Z,1.80
2023-02-27T03:24:02.464Z,1.80
2023-02-27T03:24:22.670Z,1.80
2023-02-27T03:24:41.802Z,1.80
2023-02-27T03:24:55.940Z,1.80
2023-02-27T03:25:10.151Z,1.80
2023-02-27T03:25:22.043Z,1.80
2023-02-27T03:25:33.918Z,1.80
2023-02-27T03:25:46.430Z,1.90
2023-02-27T03:25:58.585Z,1.90
2023-02-27T03:26:11.099Z,1.80
2023-02-27T03:26:29.990Z,1.90
2023-02-27T03:26:43.037Z,1.90
2023-02-27T03:26:57.168Z,1.90
2023-02-27T03:27:09.430Z,1.80
2023-02-27T03:27:21.969Z,1.80
2023-02-27T03:27:38.733Z,1.80
2023-02-27T03:28:22.230Z,1.80
2023-02-27T03:28:36.580Z,1.80
2023-02-27T03:29:09.277Z,1.80
2023-02-27T03:29:27.553Z,1.70
2023-02-27T03:29:53.877Z,1.80
2023-02-27T03:30:16.166Z,1.80
2023-02-27T03:30:38.170Z,1.70
2023-02-27T03:31:17.546Z,1.80
2023-02-27T03:31:42.704Z,1.70
2023-02-27T03:32:00.718Z,1.80
2023-02-27T03:32:19.124Z,1.70
2023-02-27T03:33:12.570Z,1.70
2023-02-27T03:33:38.334Z,1.80
2023-02-27T03:33:57.686Z,1.80
2023-02-27T03:34:34.047Z,1.80
2023-02-27T03:34:46.069Z,1.80
2023-02-27T03:34:57.828Z,1.70
2023-02-27T03:35:09.923Z,1.80
2023-02-27T03:35:21.840Z,1.80
2023-02-27T03:35:53.639Z,1.70
2023-02-27T03:36:37.649Z,1.70
2023-02-27T03:37:32.686Z,1.70
2023-02-27T03:38:16.675Z,1.70
2023-02-27T03:38:37.021Z,1.70
2023-02-27T03:39:16.235Z,1.70
2023-02-27T03:39:47.548Z,1.70
2023-02-27T03:40:25.523Z,1.70
2023-02-27T03:40:41.807Z,1.60
2023-02-27T03:41:30.177Z,1.70
2023-02-27T03:42:17.362Z,1.70
2023-02-27T03:42:39.020Z,1.70
2023-02-27T03:43:06.954Z,1.60
2023-02-27T03:44:14.791Z,1.60
2023-02-27T03:44:35.804Z,1.70
2023-02-27T03:45:07.285Z,1.70
2023-02-27T03:45:55.809Z,1.60
2023-02-27T03:46:20.114Z,1.70
2023-02-27T03:46:32.152Z,1.70
2023-02-27T03:46:43.999Z,1.70
2023-02-27T03:46:55.843Z,1.70
2023-02-27T03:47:07.668Z,1.70
2023-02-27T03:47:19.864Z,1.60
2023-02-27T03:47:31.806Z,1.70
2023-02-27T03:47:43.659Z,1.60
2023-02-27T03:47:55.612Z,1.60